LiveATC.Net - Listen to live air traffic control over the Internet!


ICAO: KRAS  IATA: RAS   Airport: Mustang Beach Airport
City: Port Aransas   State/Province: Texas
Country: United States   Continent: North America
KRAS METAR Weather: KRAS 191955Z AUTO 15014KT 10SM SCT016 31/26 A2985 RMK AO2 T03080258
KRAS Flight Activity (FlightAware)
KRAS Airport Info   (iFlightPlanner)
KRAS VFR Sectional Chart   (iFlightPlanner) 
KRAS IFR Low Chart   (iFlightPlanner) 

KRAS CTAF
Feed Status: DOWN
Last heard on: 2019-06-18 01:26:03 (1 days 18 hours 48 minutes ago)
KRAS CTAF Audio Archives
FacilityFrequency
Mustang Beach CTAF122.900

NOTICE

Unauthorized use prohibited. See LiveATC.net Terms of Service


Find LiveATC Audio Streams


Airport/ARTCC Code

Frequency Search
(e.g., 124.400, 128.75)
Site-wide search
 


Browse LiveATC Feeds
Top 50 LiveATC Feeds
LiveATC Feed Map
Bad Weather Areas

LiveATC FAQ
Offer LiveATC feed
Contact LiveATC.net
Press Inquiries

LiveATC on iPhone
LiveATC on Android

Windows Phone
Windows 8/10

LiveATC Mobile
(Mobile browser)

ATC Audio Archives
Interesting Recordings

LiveATC Forums


Home Page
About LiveATC.net
Make a Donation
Terms of Use
Privacy Policy

Canadian Air Freqs

AIRMETs/SIGMETs

FAA Airport Status
Nat'l Airspace Status
Arrival Demand Charts


Server Software By:
Icecast.org
Liquidsoap